createdAt,value
2023-09-17T00:02:05.530Z,21.74
2023-09-17T00:04:33.513Z,21.73
2023-09-17T00:07:01.362Z,21.73
2023-09-17T00:09:29.333Z,21.62
2023-09-17T00:11:57.238Z,21.57
2023-09-17T00:14:26.757Z,21.54
2023-09-17T00:16:55.222Z,21.55
2023-09-17T00:19:23.196Z,21.49
2023-09-17T00:21:52.802Z,21.59
2023-09-17T00:24:20.707Z,21.55
2023-09-17T00:26:48.740Z,21.52
2023-09-17T00:29:16.612Z,21.39
2023-09-17T00:31:45.902Z,21.44
2023-09-17T00:34:13.884Z,21.26
2023-09-17T00:36:41.731Z,21.40
2023-09-17T00:39:10.144Z,21.43
2023-09-17T00:41:38.028Z,21.43
2023-09-17T00:44:06.371Z,21.32
2023-09-17T00:46:34.402Z,21.44
2023-09-17T00:49:04.125Z,21.37
2023-09-17T00:51:32.147Z,21.44
2023-09-17T00:54:01.152Z,21.39
2023-09-17T00:56:29.098Z,21.30
2023-09-17T00:58:58.663Z,21.45
2023-09-17T01:01:27.269Z,21.49
2023-09-17T01:03:56.700Z,21.48
2023-09-17T01:06:26.629Z,21.50
2023-09-17T01:08:55.657Z,21.41
2023-09-17T01:11:23.807Z,21.37
2023-09-17T01:14:08.964Z,21.36
2023-09-17T01:16:37.006Z,21.33
2023-09-17T01:19:05.993Z,21.18
2023-09-17T01:21:40.895Z,21.07
2023-09-17T01:24:22.490Z,21.20
2023-09-17T01:27:00.601Z,21.24
2023-09-17T01:29:33.275Z,21.15
2023-09-17T01:32:01.181Z,20.99
2023-09-17T01:34:31.464Z,21.00
2023-09-17T01:37:03.647Z,20.89
2023-09-17T01:39:36.018Z,20.95
2023-09-17T01:42:06.491Z,20.94
2023-09-17T01:44:36.071Z,20.98
2023-09-17T01:47:05.920Z,20.89
2023-09-17T01:49:35.199Z,20.95
2023-09-17T01:52:03.737Z,20.85
2023-09-17T01:54:32.367Z,20.77
2023-09-17T01:57:00.536Z,20.77
2023-09-17T01:59:29.813Z,20.64
2023-09-17T02:01:57.856Z,20.72
2023-09-17T02:04:25.843Z,20.76
2023-09-17T02:06:55.106Z,20.82
2023-09-17T02:09:23.382Z,20.70
2023-09-17T02:11:51.834Z,20.65
2023-09-17T02:14:19.691Z,20.69
2023-09-17T02:16:48.917Z,20.81
2023-09-17T02:19:16.881Z,20.83
2023-09-17T02:21:45.128Z,20.85
2023-09-17T02:24:13.871Z,20.69
2023-09-17T02:26:41.744Z,20.67
2023-09-17T02:29:09.793Z,20.69
2023-09-17T02:31:37.829Z,20.54
2023-09-17T02:34:07.242Z,20.62
2023-09-17T02:36:37.601Z,20.67
2023-09-17T02:39:07.305Z,20.67
2023-09-17T02:41:35.237Z,20.69
2023-09-17T02:44:03.892Z,20.50
2023-09-17T02:46:31.882Z,20.51
2023-09-17T02:48:59.981Z,20.56
2023-09-17T02:51:29.670Z,20.64
2023-09-17T02:53:57.613Z,20.47
2023-09-17T02:56:26.249Z,20.44
2023-09-17T02:58:54.291Z,20.42
2023-09-17T03:01:24.448Z,20.54
2023-09-17T03:03:53.014Z,20.61
2023-09-17T03:06:21.621Z,20.47
2023-09-17T03:08:50.919Z,20.38
2023-09-17T03:11:18.888Z,20.34
2023-09-17T03:13:48.144Z,20.28
2023-09-17T03:16:17.668Z,20.21
2023-09-17T03:18:47.367Z,20.31
2023-09-17T03:21:15.424Z,20.38
2023-09-17T03:23:43.322Z,20.39
2023-09-17T03:26:12.725Z,20.45
2023-09-17T03:28:40.734Z,20.36
2023-09-17T03:31:08.944Z,20.41
2023-09-17T03:33:38.131Z,20.37
2023-09-17T03:36:06.633Z,20.23
2023-09-17T03:38:34.878Z,20.15
2023-09-17T03:41:03.858Z,20.33
2023-09-17T03:43:35.161Z,20.35
2023-09-17T03:46:05.187Z,20.35
2023-09-17T03:48:33.866Z,20.26
2023-09-17T03:51:03.813Z,20.31
2023-09-17T03:53:33.014Z,20.33
2023-09-17T03:56:01.614Z,20.24
2023-09-17T03:58:33.013Z,20.20
2023-09-17T04:01:00.961Z,20.24
2023-09-17T04:03:29.127Z,20.25
2023-09-17T04:05:57.007Z,20.14
2023-09-17T04:08:25.492Z,19.90
2023-09-17T04:10:55.808Z,20.05
2023-09-17T04:13:23.946Z,19.98
2023-09-17T04:15:53.399Z,20.07
2023-09-17T04:18:21.259Z,20.14
2023-09-17T04:20:50.027Z,20.03
2023-09-17T04:23:18.288Z,20.10
2023-09-17T04:25:46.475Z,20.09
2023-09-17T04:28:14.579Z,20.10
2023-09-17T04:30:42.682Z,20.12
2023-09-17T04:33:11.953Z,19.92
2023-09-17T04:35:40.259Z,19.88
2023-09-17T04:38:08.912Z,19.77
2023-09-17T04:40:37.040Z,19.74
2023-09-17T04:43:07.878Z,19.80
2023-09-17T04:45:37.580Z,19.90
2023-09-17T04:48:17.369Z,19.92
2023-09-17T04:50:48.126Z,19.83
2023-09-17T04:53:17.139Z,19.82
2023-09-17T04:55:47.041Z,19.93
2023-09-17T04:58:17.216Z,19.98
2023-09-17T05:00:48.335Z,19.95
2023-09-17T05:03:17.875Z,19.86
2023-09-17T05:05:47.487Z,19.81
2023-09-17T05:08:18.137Z,19.89
2023-09-17T05:10:46.744Z,19.95
2023-09-17T05:13:14.650Z,20.04
2023-09-17T05:15:42.874Z,20.18
2023-09-17T05:18:12.137Z,20.18
2023-09-17T05:20:46.523Z,20.19
2023-09-17T05:23:14.523Z,20.27
2023-09-17T05:25:42.810Z,20.17
2023-09-17T05:28:12.468Z,20.12
2023-09-17T05:30:40.573Z,20.17
2023-09-17T05:33:08.795Z,20.32
2023-09-17T05:35:37.877Z,20.35
2023-09-17T05:38:07.570Z,20.53
2023-09-17T05:40:36.352Z,20.53
2023-09-17T05:43:05.430Z,20.57
2023-09-17T05:45:34.031Z,20.56
2023-09-17T05:48:02.778Z,20.51
2023-09-17T05:50:30.895Z,20.44
2023-09-17T05:52:58.911Z,20.44
2023-09-17T05:55:30.056Z,20.58
2023-09-17T05:57:58.786Z,20.74
2023-09-17T06:00:27.485Z,20.77
2023-09-17T06:02:55.747Z,20.80
2023-09-17T06:05:23.905Z,20.79
2023-09-17T06:07:51.790Z,20.75
2023-09-17T06:10:19.870Z,20.87
2023-09-17T06:12:49.285Z,20.91
2023-09-17T06:15:17.526Z,21.08
2023-09-17T06:17:46.250Z,21.00
2023-09-17T06:20:14.236Z,21.04
2023-09-17T06:22:42.381Z,21.22
2023-09-17T06:25:10.896Z,21.32
2023-09-17T06:27:38.781Z,21.37
2023-09-17T06:30:10.612Z,21.35
2023-09-17T06:32:38.942Z,21.35
2023-09-17T06:35:07.888Z,21.44
2023-09-17T06:37:35.907Z,21.49
2023-09-17T06:40:04.582Z,21.41
2023-09-17T06:42:33.233Z,21.50
2023-09-17T06:45:02.311Z,21.43
2023-09-17T06:47:31.732Z,21.53
2023-09-17T06:49:59.955Z,21.50
2023-09-17T06:52:28.618Z,21.54
2023-09-17T06:54:56.681Z,21.67
2023-09-17T06:57:24.540Z,21.73
2023-09-17T06:59:52.408Z,21.73
2023-09-17T07:02:20.351Z,21.84
2023-09-17T07:04:50.121Z,22.03
2023-09-17T07:07:18.117Z,22.11
2023-09-17T07:09:46.460Z,22.07
2023-09-17T07:12:14.516Z,22.21
2023-09-17T07:14:42.561Z,22.20
2023-09-17T07:17:10.474Z,22.23
2023-09-17T07:19:38.405Z,22.41
2023-09-17T07:22:13.535Z,22.36
2023-09-17T07:24:41.606Z,22.39
2023-09-17T07:27:09.671Z,22.32
2023-09-17T07:29:38.660Z,22.51
2023-09-17T07:32:07.096Z,23.02
2023-09-17T07:34:35.703Z,22.65
2023-09-17T07:37:05.765Z,22.63
2023-09-17T07:39:35.266Z,23.17
2023-09-17T07:42:03.575Z,23.33
2023-09-17T07:44:31.457Z,23.44
2023-09-17T07:46:59.960Z,23.50
2023-09-17T07:49:29.700Z,22.97
2023-09-17T07:51:58.467Z,23.34
2023-09-17T07:54:27.288Z,23.52
2023-09-17T07:56:56.583Z,23.34
2023-09-17T07:59:24.566Z,23.44
2023-09-17T08:01:52.700Z,23.49
2023-09-17T08:04:20.833Z,23.60
2023-09-17T08:06:50.319Z,23.51
2023-09-17T08:09:18.649Z,23.57
2023-09-17T08:11:46.643Z,23.75
2023-09-17T08:14:16.079Z,23.78
2023-09-17T08:16:44.120Z,24.03
2023-09-17T08:19:12.796Z,23.74
2023-09-17T08:21:40.714Z,23.98
2023-09-17T08:24:09.095Z,24.19
2023-09-17T08:26:36.986Z,24.26
2023-09-17T08:29:06.415Z,24.24
2023-09-17T08:31:35.963Z,24.43
2023-09-17T08:34:04.744Z,24.40
2023-09-17T08:36:33.671Z,24.35
2023-09-17T08:39:02.468Z,24.12
2023-09-17T08:41:30.527Z,24.13
2023-09-17T08:43:58.593Z,24.44
2023-09-17T08:46:28.131Z,24.50
2023-09-17T08:48:57.518Z,24.46
2023-09-17T08:51:26.858Z,24.20
2023-09-17T08:54:04.423Z,24.67
2023-09-17T08:56:33.843Z,24.66
2023-09-17T08:59:05.707Z,24.88
2023-09-17T09:01:37.449Z,25.00
2023-09-17T09:04:08.107Z,25.16
2023-09-17T09:06:37.613Z,24.94
2023-09-17T09:09:06.761Z,24.73
2023-09-17T09:11:35.848Z,25.14
2023-09-17T09:14:06.137Z,25.25
2023-09-17T09:16:37.756Z,25.28
2023-09-17T09:19:08.914Z,25.58
2023-09-17T09:21:37.126Z,25.28
2023-09-17T09:24:05.374Z,25.53
2023-09-17T09:26:35.549Z,25.64
2023-09-17T09:29:05.087Z,25.71
2023-09-17T09:31:33.653Z,25.76
2023-09-17T09:34:02.601Z,25.74
2023-09-17T09:36:34.239Z,25.84
2023-09-17T09:39:03.536Z,26.05
2023-09-17T09:41:34.488Z,26.08
2023-09-17T09:44:03.100Z,26.31
2023-09-17T09:46:34.880Z,26.22
2023-09-17T09:49:03.387Z,26.26
2023-09-17T09:51:33.086Z,26.13
2023-09-17T09:54:01.179Z,26.28
2023-09-17T09:56:30.318Z,26.18
2023-09-17T09:58:58.762Z,26.54
2023-09-17T10:01:29.469Z,26.47
2023-09-17T10:04:00.314Z,26.59
2023-09-17T10:06:31.503Z,27.03
2023-09-17T10:09:02.035Z,27.25
2023-09-17T10:11:31.274Z,27.86
2023-09-17T10:14:04.192Z,28.15
2023-09-17T10:16:32.877Z,27.71
2023-09-17T10:19:01.182Z,28.75
2023-09-17T10:21:30.081Z,28.32
2023-09-17T10:23:59.525Z,29.08
2023-09-17T10:26:33.880Z,29.54
2023-09-17T10:29:02.580Z,29.84
2023-09-17T10:31:32.176Z,29.78
2023-09-17T10:34:02.611Z,30.02
2023-09-17T10:36:32.638Z,30.59
2023-09-17T10:39:01.175Z,29.85
2023-09-17T10:41:33.913Z,30.69
2023-09-17T10:44:02.949Z,30.33
2023-09-17T10:46:33.262Z,30.88
2023-09-17T10:49:02.678Z,31.43
2023-09-17T10:51:30.821Z,31.51
2023-09-17T10:53:58.992Z,31.05
2023-09-17T10:56:27.852Z,31.15
2023-09-17T10:58:57.204Z,31.43
2023-09-17T11:01:30.542Z,31.73
2023-09-17T11:04:03.714Z,31.86
2023-09-17T11:06:33.949Z,31.90
2023-09-17T11:09:02.684Z,31.17
2023-09-17T11:11:31.978Z,31.64
2023-09-17T11:14:01.700Z,32.09
2023-09-17T11:16:31.792Z,31.47
2023-09-17T11:19:07.674Z,31.67
2023-09-17T11:21:36.921Z,32.16
2023-09-17T11:24:09.107Z,31.32
2023-09-17T11:26:40.236Z,31.87
2023-09-17T11:29:11.938Z,31.54
2023-09-17T11:32:05.324Z,31.79
2023-09-17T11:34:35.284Z,32.23
2023-09-17T11:37:04.512Z,31.81
2023-09-17T11:39:34.615Z,31.92
2023-09-17T11:42:06.785Z,31.76
2023-09-17T11:44:38.827Z,32.16
2023-09-17T11:47:08.061Z,32.40
2023-09-17T11:49:36.742Z,31.93
2023-09-17T11:52:11.334Z,31.83
2023-09-17T11:54:49.294Z,32.05
2023-09-17T11:57:24.183Z,31.38
2023-09-17T11:59:53.603Z,32.05
2023-09-17T12:02:22.031Z,31.69
2023-09-17T12:04:51.854Z,31.54
2023-09-17T12:07:20.017Z,30.93
2023-09-17T12:09:59.996Z,31.55
2023-09-17T12:12:28.414Z,31.71
2023-09-17T12:14:57.912Z,31.68
2023-09-17T12:17:25.902Z,31.90
2023-09-17T12:20:00.756Z,31.47
2023-09-17T12:22:30.004Z,31.25
2023-09-17T12:25:04.024Z,30.99
2023-09-17T12:27:36.349Z,31.25
2023-09-17T12:30:09.755Z,31.12
2023-09-17T12:32:38.191Z,31.06
2023-09-17T12:35:08.423Z,30.88
2023-09-17T12:37:36.625Z,30.84
2023-09-17T12:40:08.263Z,30.67
2023-09-17T12:42:37.030Z,31.08
2023-09-17T12:45:07.496Z,31.08
2023-09-17T12:47:35.639Z,30.57
2023-09-17T12:50:05.829Z,30.30
2023-09-17T12:52:33.816Z,30.06
2023-09-17T12:55:02.235Z,30.51
2023-09-17T12:57:32.218Z,30.30
2023-09-17T13:00:00.335Z,30.22
2023-09-17T13:02:34.721Z,30.60
2023-09-17T13:05:02.955Z,30.47
2023-09-17T13:07:32.820Z,30.44
2023-09-17T13:10:01.830Z,30.53
2023-09-17T13:12:30.006Z,30.24
2023-09-17T13:14:58.734Z,29.68
2023-09-17T13:17:30.307Z,30.23
2023-09-17T13:20:00.068Z,30.31
2023-09-17T13:22:28.417Z,30.16
2023-09-17T13:24:58.453Z,30.27
2023-09-17T13:27:26.388Z,30.26
2023-09-17T13:29:54.902Z,30.02
2023-09-17T13:32:23.138Z,30.00
2023-09-17T13:34:51.913Z,30.35
2023-09-17T13:37:21.437Z,30.43
2023-09-17T13:39:51.087Z,30.61
2023-09-17T13:42:19.351Z,30.63
2023-09-17T13:44:47.221Z,30.52
2023-09-17T13:47:15.188Z,30.91
2023-09-17T13:49:43.660Z,30.65
2023-09-17T13:52:11.735Z,30.13
2023-09-17T13:54:43.259Z,29.76
2023-09-17T13:57:11.286Z,30.32
2023-09-17T13:59:39.146Z,30.48
2023-09-17T14:02:07.120Z,30.55
2023-09-17T14:04:35.513Z,30.90
2023-09-17T14:07:03.826Z,30.74
2023-09-17T14:09:31.756Z,30.32
2023-09-17T14:12:00.969Z,29.77
2023-09-17T14:14:28.846Z,30.05
2023-09-17T14:16:56.817Z,30.14
2023-09-17T14:19:24.739Z,30.48
2023-09-17T14:21:52.615Z,30.08
2023-09-17T14:24:20.487Z,29.87
2023-09-17T14:26:48.401Z,29.69
2023-09-17T14:29:17.709Z,29.43
2023-09-17T14:31:45.738Z,29.96
2023-09-17T14:34:13.661Z,30.08
2023-09-17T14:36:41.551Z,29.99
2023-09-17T14:39:12.006Z,29.91
2023-09-17T14:41:40.563Z,29.51
2023-09-17T14:44:08.854Z,29.66
2023-09-17T14:46:39.580Z,29.97
2023-09-17T14:49:08.252Z,29.75
2023-09-17T14:51:36.256Z,29.27
2023-09-17T14:54:04.239Z,29.56
2023-09-17T14:56:32.423Z,29.83
2023-09-17T14:59:00.301Z,29.79
2023-09-17T15:01:56.824Z,29.75
2023-09-17T15:04:17.454Z,30.01
2023-09-17T15:06:45.500Z,29.46
2023-09-17T15:09:13.396Z,29.45
2023-09-17T15:11:41.755Z,29.22
2023-09-17T15:14:09.736Z,29.69
2023-09-17T15:16:38.582Z,29.87
2023-09-17T15:19:07.232Z,29.66
2023-09-17T15:21:36.620Z,29.74
2023-09-17T15:24:05.878Z,29.74
2023-09-17T15:26:33.796Z,29.68
2023-09-17T15:29:01.727Z,29.98
2023-09-17T15:31:29.655Z,29.52
2023-09-17T15:33:57.724Z,29.68
2023-09-17T15:36:25.875Z,29.86
2023-09-17T15:38:55.140Z,29.89
2023-09-17T15:41:23.597Z,29.64
2023-09-17T15:43:51.592Z,29.72
2023-09-17T15:46:19.731Z,29.66
2023-09-17T15:48:47.955Z,29.31
2023-09-17T15:51:15.840Z,29.21
2023-09-17T15:53:43.778Z,29.19
2023-09-17T15:56:13.030Z,29.45
2023-09-17T15:58:40.965Z,29.56
2023-09-17T16:01:08.999Z,29.67
2023-09-17T16:03:37.023Z,29.12
2023-09-17T16:06:05.731Z,29.13
2023-09-17T16:08:33.599Z,29.38
2023-09-17T16:11:01.508Z,29.63
2023-09-17T16:13:30.799Z,29.54
2023-09-17T16:15:58.690Z,29.69
2023-09-17T16:18:26.575Z,29.56
2023-09-17T16:20:54.646Z,29.35
2023-09-17T16:23:22.619Z,29.34
2023-09-17T16:25:50.619Z,29.21
2023-09-17T16:28:17.866Z,29.24
2023-09-17T16:30:47.092Z,28.97
2023-09-17T16:33:15.088Z,29.20
2023-09-17T16:35:43.104Z,28.81
2023-09-17T16:38:11.089Z,28.70
2023-09-17T16:40:39.052Z,28.55
2023-09-17T16:43:09.864Z,28.81
2023-09-17T16:45:39.539Z,28.87
2023-09-17T16:48:09.030Z,28.66
2023-09-17T16:50:36.960Z,28.56
2023-09-17T16:53:05.231Z,28.41
2023-09-17T16:55:35.053Z,28.45
2023-09-17T16:58:03.539Z,28.47
2023-09-17T17:00:31.444Z,28.35
2023-09-17T17:02:59.522Z,28.28
2023-09-17T17:05:28.887Z,28.14
2023-09-17T17:07:57.859Z,28.17
2023-09-17T17:10:27.017Z,28.06
2023-09-17T17:12:54.908Z,28.06
2023-09-17T17:15:22.961Z,27.92
2023-09-17T17:17:50.970Z,27.94
2023-09-17T17:20:19.121Z,27.78
2023-09-17T17:22:49.556Z,27.74
2023-09-17T17:25:18.437Z,27.57
2023-09-17T17:27:47.322Z,27.57
2023-09-17T17:30:15.473Z,27.42
2023-09-17T17:32:43.963Z,27.32
2023-09-17T17:35:12.639Z,27.35
2023-09-17T17:37:40.905Z,27.39
2023-09-17T17:40:11.081Z,27.28
2023-09-17T17:42:38.968Z,27.20
2023-09-17T17:45:08.407Z,27.12
2023-09-17T17:47:36.355Z,27.04
2023-09-17T17:50:04.602Z,27.04
2023-09-17T17:52:33.167Z,26.93
2023-09-17T17:55:01.061Z,27.02
2023-09-17T17:57:30.402Z,26.83
2023-09-17T17:59:58.312Z,26.81
2023-09-17T18:02:26.845Z,26.81
2023-09-17T18:04:56.419Z,26.97
2023-09-17T18:07:24.437Z,26.86
2023-09-17T18:09:52.559Z,26.69
2023-09-17T18:12:20.476Z,26.71
2023-09-17T18:14:50.945Z,26.78
2023-09-17T18:17:18.989Z,26.61
2023-09-17T18:19:46.877Z,26.68
2023-09-17T18:22:13.766Z,26.64
2023-09-17T18:24:41.630Z,26.53
2023-09-17T18:27:09.600Z,26.55
2023-09-17T18:29:37.740Z,26.60
2023-09-17T18:32:07.184Z,26.46
2023-09-17T18:34:35.111Z,26.55
2023-09-17T18:37:03.526Z,26.23
2023-09-17T18:39:32.339Z,26.33
2023-09-17T18:42:00.310Z,26.38
2023-09-17T18:44:28.591Z,26.21
2023-09-17T18:46:56.700Z,26.25
2023-09-17T18:49:25.984Z,26.19
2023-09-17T18:51:54.600Z,26.08
2023-09-17T18:54:22.736Z,26.17
2023-09-17T18:56:50.616Z,26.01
2023-09-17T18:59:18.608Z,25.90
2023-09-17T19:01:46.617Z,25.91
2023-09-17T19:04:14.568Z,25.87
2023-09-17T19:06:43.783Z,25.79
2023-09-17T19:09:11.682Z,25.81
2023-09-17T19:11:39.550Z,25.76
2023-09-17T19:14:07.438Z,25.97
2023-09-17T19:16:35.365Z,25.82
2023-09-17T19:19:04.217Z,25.87
2023-09-17T19:21:32.108Z,25.72
2023-09-17T19:24:01.366Z,25.62
2023-09-17T19:26:30.260Z,25.65
2023-09-17T19:29:00.091Z,25.61
2023-09-17T19:31:28.025Z,25.77
2023-09-17T19:33:55.870Z,25.72
2023-09-17T19:36:24.207Z,25.80
2023-09-17T19:38:53.380Z,25.77
2023-09-17T19:41:22.711Z,25.73
2023-09-17T19:43:51.445Z,25.46
2023-09-17T19:46:20.920Z,25.52
2023-09-17T19:48:49.847Z,25.41
2023-09-17T19:51:18.011Z,25.39
2023-09-17T19:53:45.917Z,25.62
2023-09-17T19:56:13.925Z,25.61
2023-09-17T19:58:43.240Z,25.37
2023-09-17T20:01:13.010Z,25.45
2023-09-17T20:03:40.981Z,25.44
2023-09-17T20:06:08.886Z,25.44
2023-09-17T20:08:36.753Z,25.53
2023-09-17T20:11:04.664Z,25.46
2023-09-17T20:13:32.907Z,25.42
2023-09-17T20:16:02.164Z,25.45
2023-09-17T20:18:31.531Z,25.38
2023-09-17T20:20:59.859Z,25.36
2023-09-17T20:23:28.370Z,25.24
2023-09-17T20:25:56.338Z,25.30
2023-09-17T20:28:24.234Z,25.36
2023-09-17T20:30:53.204Z,25.30
2023-09-17T20:33:22.887Z,25.14
2023-09-17T20:35:51.201Z,24.92
2023-09-17T20:38:19.645Z,25.00
2023-09-17T20:40:47.668Z,25.05
2023-09-17T20:43:15.855Z,25.08
2023-09-17T20:45:43.824Z,25.01
2023-09-17T20:48:11.797Z,25.17
2023-09-17T20:50:42.690Z,25.17
2023-09-17T20:53:11.702Z,25.04
2023-09-17T20:55:39.926Z,25.08
2023-09-17T20:58:07.786Z,25.10
2023-09-17T21:00:35.675Z,24.98
2023-09-17T21:03:03.809Z,25.01
2023-09-17T21:05:31.741Z,25.03
2023-09-17T21:08:01.692Z,24.71
2023-09-17T21:10:29.844Z,24.86
2023-09-17T21:12:59.801Z,24.94
2023-09-17T21:15:27.680Z,24.86
2023-09-17T21:17:55.636Z,24.77
2023-09-17T21:20:23.634Z,24.80
2023-09-17T21:22:51.904Z,24.80
2023-09-17T21:25:21.189Z,24.57
2023-09-17T21:27:49.161Z,24.71
2023-09-17T21:30:17.249Z,24.51
2023-09-17T21:32:45.997Z,24.54
2023-09-17T21:35:14.674Z,24.49
2023-09-17T21:37:42.796Z,24.57
2023-09-17T21:40:12.507Z,24.59
2023-09-17T21:42:41.793Z,24.60
2023-09-17T21:45:10.313Z,24.32
2023-09-17T21:47:38.303Z,24.51
2023-09-17T21:50:07.474Z,24.51
2023-09-17T21:52:35.996Z,24.50
2023-09-17T21:55:04.372Z,24.48
2023-09-17T21:57:32.415Z,24.52
2023-09-17T22:00:01.918Z,24.42
2023-09-17T22:02:32.467Z,24.25
2023-09-17T22:05:00.518Z,24.43
2023-09-17T22:07:28.653Z,24.36
2023-09-17T22:09:56.548Z,24.27
2023-09-17T22:12:24.422Z,24.26
2023-09-17T22:14:53.517Z,24.41
2023-09-17T22:17:22.863Z,24.28
2023-09-17T22:19:50.926Z,24.31
2023-09-17T22:22:18.865Z,24.35
2023-09-17T22:24:46.757Z,24.28
2023-09-17T22:27:16.156Z,24.17
2023-09-17T22:29:44.297Z,24.16
2023-09-17T22:32:12.177Z,24.18
2023-09-17T22:34:41.901Z,24.08
2023-09-17T22:37:10.008Z,24.14
2023-09-17T22:39:40.224Z,24.11
2023-09-17T22:42:08.127Z,24.00
2023-09-17T22:44:38.871Z,24.07
2023-09-17T22:47:08.097Z,24.03
2023-09-17T22:49:36.924Z,24.07
2023-09-17T22:52:07.228Z,24.12
2023-09-17T22:54:35.220Z,24.03
2023-09-17T22:57:03.076Z,24.12
2023-09-17T22:59:31.053Z,23.98
2023-09-17T23:01:59.412Z,23.92
2023-09-17T23:04:27.396Z,23.85
2023-09-17T23:06:55.311Z,23.74
2023-09-17T23:09:24.604Z,23.81
2023-09-17T23:11:52.550Z,23.87
2023-09-17T23:14:20.425Z,23.70
2023-09-17T23:16:49.193Z,23.77
2023-09-17T23:19:17.321Z,23.68
2023-09-17T23:21:45.819Z,23.63
2023-09-17T23:24:15.295Z,23.84
2023-09-17T23:26:44.700Z,23.62
2023-09-17T23:29:12.621Z,23.64
2023-09-17T23:31:41.307Z,23.57
2023-09-17T23:34:09.315Z,23.60
2023-09-17T23:36:37.182Z,23.75
2023-09-17T23:39:05.723Z,23.72
2023-09-17T23:41:33.628Z,23.74
2023-09-17T23:44:03.019Z,23.66
2023-09-17T23:46:33.027Z,23.44
2023-09-17T23:49:02.821Z,23.67
2023-09-17T23:51:31.230Z,23.54
2023-09-17T23:53:59.356Z,23.54
2023-09-17T23:56:27.328Z,23.47
2023-09-17T23:58:55.530Z,23.37
